sensor_id;sensor_type;location;lat;lon;timestamp;temperature;humidity
24638;DHT22;12773;50.162;8.548;2023-05-14T00:02:27;13.60;99.90
24638;DHT22;12773;50.162;8.548;2023-05-14T00:05:15;13.50;99.90
24638;DHT22;12773;50.162;8.548;2023-05-14T00:08:03;13.40;99.90
24638;DHT22;12773;50.162;8.548;2023-05-14T00:10:50;13.30;99.90
24638;DHT22;12773;50.162;8.548;2023-05-14T00:13:38;13.30;99.90
24638;DHT22;12773;50.162;8.548;2023-05-14T00:16:25;13.10;99.90
24638;DHT22;12773;50.162;8.548;2023-05-14T00:19:14;13.00;99.90
24638;DHT22;12773;50.162;8.548;2023-05-14T00:22:02;12.90;99.90
24638;DHT22;12773;50.162;8.548;2023-05-14T00:24:49;12.90;99.90
24638;DHT22;12773;50.162;8.548;2023-05-14T00:27:36;12.90;99.90
24638;DHT22;12773;50.162;8.548;2023-05-14T00:30:24;12.90;99.90
24638;DHT22;12773;50.162;8.548;2023-05-14T00:33:11;12.80;99.90
24638;DHT22;12773;50.162;8.548;2023-05-14T00:35:59;12.70;99.90
24638;DHT22;12773;50.162;8.548;2023-05-14T00:38:46;12.50;99.90
24638;DHT22;12773;50.162;8.548;2023-05-14T00:41:34;12.40;99.90
24638;DHT22;12773;50.162;8.548;2023-05-14T00:44:21;12.30;99.90
24638;DHT22;12773;50.162;8.548;2023-05-14T00:47:08;12.30;99.90
24638;DHT22;12773;50.162;8.548;2023-05-14T00:49:56;12.20;99.90
24638;DHT22;12773;50.162;8.548;2023-05-14T00:52:44;12.10;99.90
24638;DHT22;12773;50.162;8.548;2023-05-14T00:55:31;12.10;99.90
24638;DHT22;12773;50.162;8.548;2023-05-14T00:58:19;12.20;99.90
24638;DHT22;12773;50.162;8.548;2023-05-14T01:01:08;12.20;99.90
24638;DHT22;12773;50.162;8.548;2023-05-14T01:03:56;12.20;99.90
24638;DHT22;12773;50.162;8.548;2023-05-14T01:06:55;12.20;99.90
24638;DHT22;12773;50.162;8.548;2023-05-14T01:09:58;12.20;99.90
24638;DHT22;12773;50.162;8.548;2023-05-14T01:13:07;12.20;99.90
24638;DHT22;12773;50.162;8.548;2023-05-14T01:15:54;12.20;99.90
24638;DHT22;12773;50.162;8.548;2023-05-14T01:18:43;12.10;99.90
24638;DHT22;12773;50.162;8.548;2023-05-14T01:21:41;12.10;99.90
24638;DHT22;12773;50.162;8.548;2023-05-14T01:24:27;12.00;99.90
24638;DHT22;12773;50.162;8.548;2023-05-14T01:27:47;12.00;99.90
24638;DHT22;12773;50.162;8.548;2023-05-14T01:30:46;11.90;99.90
24638;DHT22;12773;50.162;8.548;2023-05-14T01:33:28;11.90;99.90
24638;DHT22;12773;50.162;8.548;2023-05-14T01:36:17;11.80;99.90
24638;DHT22;12773;50.162;8.548;2023-05-14T01:39:06;11.80;99.90
24638;DHT22;12773;50.162;8.548;2023-05-14T01:41:55;11.80;99.90
24638;DHT22;12773;50.162;8.548;2023-05-14T01:44:43;11.90;99.90
24638;DHT22;12773;50.162;8.548;2023-05-14T01:47:31;11.90;99.90
24638;DHT22;12773;50.162;8.548;2023-05-14T01:50:18;11.90;99.90
24638;DHT22;12773;50.162;8.548;2023-05-14T01:53:06;11.90;99.90
24638;DHT22;12773;50.162;8.548;2023-05-14T01:55:53;11.90;99.90
24638;DHT22;12773;50.162;8.548;2023-05-14T01:58:41;11.70;99.90
24638;DHT22;12773;50.162;8.548;2023-05-14T02:01:28;11.60;99.90
24638;DHT22;12773;50.162;8.548;2023-05-14T02:04:16;11.60;99.90
24638;DHT22;12773;50.162;8.548;2023-05-14T02:07:03;11.70;99.90
24638;DHT22;12773;50.162;8.548;2023-05-14T02:09:50;11.70;99.90
24638;DHT22;12773;50.162;8.548;2023-05-14T02:12:38;11.70;99.90
24638;DHT22;12773;50.162;8.548;2023-05-14T02:15:26;11.70;99.90
24638;DHT22;12773;50.162;8.548;2023-05-14T02:18:13;11.70;99.90
24638;DHT22;12773;50.162;8.548;2023-05-14T02:21:01;11.70;99.90
24638;DHT22;12773;50.162;8.548;2023-05-14T02:23:48;11.80;99.90
24638;DHT22;12773;50.162;8.548;2023-05-14T02:26:36;11.80;99.90
24638;DHT22;12773;50.162;8.548;2023-05-14T02:29:23;11.70;99.90
24638;DHT22;12773;50.162;8.548;2023-05-14T02:32:11;11.70;99.90
24638;DHT22;12773;50.162;8.548;2023-05-14T02:34:59;11.70;99.90
24638;DHT22;12773;50.162;8.548;2023-05-14T02:37:46;11.70;99.90
24638;DHT22;12773;50.162;8.548;2023-05-14T02:40:35;11.60;99.90
24638;DHT22;12773;50.162;8.548;2023-05-14T02:43:23;11.60;99.90
24638;DHT22;12773;50.162;8.548;2023-05-14T02:46:10;11.60;99.90
24638;DHT22;12773;50.162;8.548;2023-05-14T02:48:58;11.60;99.90
24638;DHT22;12773;50.162;8.548;2023-05-14T02:51:45;11.50;99.90
24638;DHT22;12773;50.162;8.548;2023-05-14T02:54:32;11.50;99.90
24638;DHT22;12773;50.162;8.548;2023-05-14T02:57:20;11.50;99.90
24638;DHT22;12773;50.162;8.548;2023-05-14T03:00:08;11.60;99.90
24638;DHT22;12773;50.162;8.548;2023-05-14T03:02:56;11.60;99.90
24638;DHT22;12773;50.162;8.548;2023-05-14T03:05:44;11.70;99.90
24638;DHT22;12773;50.162;8.548;2023-05-14T03:08:31;11.70;99.90
24638;DHT22;12773;50.162;8.548;2023-05-14T03:11:19;11.80;99.90
24638;DHT22;12773;50.162;8.548;2023-05-14T03:14:07;11.80;99.90
24638;DHT22;12773;50.162;8.548;2023-05-14T03:16:55;11.80;99.90
24638;DHT22;12773;50.162;8.548;2023-05-14T03:19:42;11.90;99.90
24638;DHT22;12773;50.162;8.548;2023-05-14T03:22:30;11.90;99.90
24638;DHT22;12773;50.162;8.548;2023-05-14T03:25:17;11.90;99.90
24638;DHT22;12773;50.162;8.548;2023-05-14T03:28:05;11.90;99.90
24638;DHT22;12773;50.162;8.548;2023-05-14T03:30:52;11.90;99.90
24638;DHT22;12773;50.162;8.548;2023-05-14T03:33:40;11.90;99.90
24638;DHT22;12773;50.162;8.548;2023-05-14T03:36:27;11.90;99.90
24638;DHT22;12773;50.162;8.548;2023-05-14T03:39:15;11.90;99.90
24638;DHT22;12773;50.162;8.548;2023-05-14T03:42:04;11.80;99.90
24638;DHT22;12773;50.162;8.548;2023-05-14T03:44:52;11.80;99.90
24638;DHT22;12773;50.162;8.548;2023-05-14T03:47:39;11.70;99.90
24638;DHT22;12773;50.162;8.548;2023-05-14T03:50:27;11.70;99.90
24638;DHT22;12773;50.162;8.548;2023-05-14T03:53:14;11.70;99.90
24638;DHT22;12773;50.162;8.548;2023-05-14T03:56:02;11.70;99.90
24638;DHT22;12773;50.162;8.548;2023-05-14T03:58:49;11.70;99.90
24638;DHT22;12773;50.162;8.548;2023-05-14T04:01:36;11.60;99.90
24638;DHT22;12773;50.162;8.548;2023-05-14T04:04:24;11.50;99.90
24638;DHT22;12773;50.162;8.548;2023-05-14T04:07:12;11.50;99.90
24638;DHT22;12773;50.162;8.548;2023-05-14T04:09:59;11.50;99.90
24638;DHT22;12773;50.162;8.548;2023-05-14T04:12:47;11.60;99.90
24638;DHT22;12773;50.162;8.548;2023-05-14T04:15:35;11.50;99.90
24638;DHT22;12773;50.162;8.548;2023-05-14T04:18:24;11.40;99.90
24638;DHT22;12773;50.162;8.548;2023-05-14T04:21:12;11.40;99.90
24638;DHT22;12773;50.162;8.548;2023-05-14T04:24:00;11.40;99.90
24638;DHT22;12773;50.162;8.548;2023-05-14T04:26:47;11.30;99.90
24638;DHT22;12773;50.162;8.548;2023-05-14T04:29:35;11.20;99.90
24638;DHT22;12773;50.162;8.548;2023-05-14T04:32:22;11.20;99.90
24638;DHT22;12773;50.162;8.548;2023-05-14T04:35:10;11.30;99.90
24638;DHT22;12773;50.162;8.548;2023-05-14T04:37:58;11.40;99.90
24638;DHT22;12773;50.162;8.548;2023-05-14T04:40:46;11.50;99.90
24638;DHT22;12773;50.162;8.548;2023-05-14T04:43:34;11.60;99.90
24638;DHT22;12773;50.162;8.548;2023-05-14T04:46:21;11.70;99.90
24638;DHT22;12773;50.162;8.548;2023-05-14T04:49:09;11.80;99.90
24638;DHT22;12773;50.162;8.548;2023-05-14T04:51:56;11.80;99.90
24638;DHT22;12773;50.162;8.548;2023-05-14T04:54:44;11.80;99.90
24638;DHT22;12773;50.162;8.548;2023-05-14T04:57:32;11.80;99.90
24638;DHT22;12773;50.162;8.548;2023-05-14T05:00:19;11.90;99.90
24638;DHT22;12773;50.162;8.548;2023-05-14T05:03:07;12.00;99.90
24638;DHT22;12773;50.162;8.548;2023-05-14T05:05:55;12.20;99.90
24638;DHT22;12773;50.162;8.548;2023-05-14T05:08:42;12.30;99.90
24638;DHT22;12773;50.162;8.548;2023-05-14T05:11:29;12.40;99.90
24638;DHT22;12773;50.162;8.548;2023-05-14T05:14:17;12.50;99.90
24638;DHT22;12773;50.162;8.548;2023-05-14T05:17:05;12.60;99.90
24638;DHT22;12773;50.162;8.548;2023-05-14T05:19:52;12.70;99.90
24638;DHT22;12773;50.162;8.548;2023-05-14T05:22:40;12.80;99.90
24638;DHT22;12773;50.162;8.548;2023-05-14T05:25:27;13.00;99.90
24638;DHT22;12773;50.162;8.548;2023-05-14T05:28:15;13.10;99.90
24638;DHT22;12773;50.162;8.548;2023-05-14T05:31:03;13.10;99.90
24638;DHT22;12773;50.162;8.548;2023-05-14T05:33:50;13.20;99.90
24638;DHT22;12773;50.162;8.548;2023-05-14T05:36:38;13.30;99.90
24638;DHT22;12773;50.162;8.548;2023-05-14T05:39:25;13.40;99.90
24638;DHT22;12773;50.162;8.548;2023-05-14T05:42:13;13.50;99.90
24638;DHT22;12773;50.162;8.548;2023-05-14T05:45:00;13.70;99.90
24638;DHT22;12773;50.162;8.548;2023-05-14T05:47:48;13.80;99.90
24638;DHT22;12773;50.162;8.548;2023-05-14T05:50:35;13.90;99.90
24638;DHT22;12773;50.162;8.548;2023-05-14T05:53:23;14.00;99.90
24638;DHT22;12773;50.162;8.548;2023-05-14T05:56:10;14.10;99.90
24638;DHT22;12773;50.162;8.548;2023-05-14T05:58:57;14.30;99.90
24638;DHT22;12773;50.162;8.548;2023-05-14T06:01:45;14.50;99.90
24638;DHT22;12773;50.162;8.548;2023-05-14T06:04:33;14.50;99.90
24638;DHT22;12773;50.162;8.548;2023-05-14T06:07:20;14.70;99.90
24638;DHT22;12773;50.162;8.548;2023-05-14T06:10:08;14.90;99.90
24638;DHT22;12773;50.162;8.548;2023-05-14T06:12:55;15.20;99.90
24638;DHT22;12773;50.162;8.548;2023-05-14T06:15:42;15.40;99.90
24638;DHT22;12773;50.162;8.548;2023-05-14T06:18:29;15.50;99.90
24638;DHT22;12773;50.162;8.548;2023-05-14T06:21:17;15.70;99.90
24638;DHT22;12773;50.162;8.548;2023-05-14T06:24:05;15.90;99.90
24638;DHT22;12773;50.162;8.548;2023-05-14T06:26:52;15.90;99.90
24638;DHT22;12773;50.162;8.548;2023-05-14T06:29:40;16.10;99.90
24638;DHT22;12773;50.162;8.548;2023-05-14T06:32:27;16.10;99.90
24638;DHT22;12773;50.162;8.548;2023-05-14T06:35:15;16.30;99.90
24638;DHT22;12773;50.162;8.548;2023-05-14T06:38:02;16.30;99.90
24638;DHT22;12773;50.162;8.548;2023-05-14T06:40:50;16.40;99.90
24638;DHT22;12773;50.162;8.548;2023-05-14T06:43:38;16.60;99.90
24638;DHT22;12773;50.162;8.548;2023-05-14T06:46:25;16.90;99.90
24638;DHT22;12773;50.162;8.548;2023-05-14T06:49:13;17.00;99.90
24638;DHT22;12773;50.162;8.548;2023-05-14T06:52:00;17.10;99.90
24638;DHT22;12773;50.162;8.548;2023-05-14T06:54:49;17.20;99.90
24638;DHT22;12773;50.162;8.548;2023-05-14T06:57:36;17.20;99.90
24638;DHT22;12773;50.162;8.548;2023-05-14T07:00:25;17.20;99.90
24638;DHT22;12773;50.162;8.548;2023-05-14T07:03:12;17.20;99.90
24638;DHT22;12773;50.162;8.548;2023-05-14T07:06:00;17.20;99.90
24638;DHT22;12773;50.162;8.548;2023-05-14T07:08:47;17.30;99.90
24638;DHT22;12773;50.162;8.548;2023-05-14T07:11:35;17.60;99.90
24638;DHT22;12773;50.162;8.548;2023-05-14T07:14:22;17.60;99.90
24638;DHT22;12773;50.162;8.548;2023-05-14T07:17:10;17.70;99.90
24638;DHT22;12773;50.162;8.548;2023-05-14T07:19:57;17.40;99.90
24638;DHT22;12773;50.162;8.548;2023-05-14T07:22:45;17.30;99.90
24638;DHT22;12773;50.162;8.548;2023-05-14T07:25:32;17.40;99.90
24638;DHT22;12773;50.162;8.548;2023-05-14T07:28:19;17.40;99.90
24638;DHT22;12773;50.162;8.548;2023-05-14T07:31:07;17.50;99.90
24638;DHT22;12773;50.162;8.548;2023-05-14T07:33:55;17.40;99.90
24638;DHT22;12773;50.162;8.548;2023-05-14T07:36:42;17.50;99.90
24638;DHT22;12773;50.162;8.548;2023-05-14T07:39:30;17.40;99.90
24638;DHT22;12773;50.162;8.548;2023-05-14T07:42:18;17.50;99.90
24638;DHT22;12773;50.162;8.548;2023-05-14T07:45:07;17.40;99.90
24638;DHT22;12773;50.162;8.548;2023-05-14T07:47:55;17.50;99.90
24638;DHT22;12773;50.162;8.548;2023-05-14T07:50:42;17.40;99.90
24638;DHT22;12773;50.162;8.548;2023-05-14T07:53:30;17.20;99.90
24638;DHT22;12773;50.162;8.548;2023-05-14T07:56:18;17.40;99.90
24638;DHT22;12773;50.162;8.548;2023-05-14T07:59:05;17.20;99.90
24638;DHT22;12773;50.162;8.548;2023-05-14T08:01:53;17.20;99.90
24638;DHT22;12773;50.162;8.548;2023-05-14T08:04:40;17.20;99.90
24638;DHT22;12773;50.162;8.548;2023-05-14T08:07:28;17.50;99.90
24638;DHT22;12773;50.162;8.548;2023-05-14T08:10:15;17.70;99.90
24638;DHT22;12773;50.162;8.548;2023-05-14T08:13:03;17.60;99.90
24638;DHT22;12773;50.162;8.548;2023-05-14T08:15:50;17.60;99.90
24638;DHT22;12773;50.162;8.548;2023-05-14T08:18:38;17.80;99.90
24638;DHT22;12773;50.162;8.548;2023-05-14T08:21:25;17.90;99.90
24638;DHT22;12773;50.162;8.548;2023-05-14T08:24:18;18.10;99.90
24638;DHT22;12773;50.162;8.548;2023-05-14T08:27:06;17.90;99.90
24638;DHT22;12773;50.162;8.548;2023-05-14T08:29:53;17.60;99.90
24638;DHT22;12773;50.162;8.548;2023-05-14T08:32:41;17.70;99.90
24638;DHT22;12773;50.162;8.548;2023-05-14T08:35:28;17.90;99.90
24638;DHT22;12773;50.162;8.548;2023-05-14T08:38:16;18.20;99.90
24638;DHT22;12773;50.162;8.548;2023-05-14T08:41:05;18.30;99.90
24638;DHT22;12773;50.162;8.548;2023-05-14T08:44:14;18.20;99.90
24638;DHT22;12773;50.162;8.548;2023-05-14T08:47:01;17.90;99.90
24638;DHT22;12773;50.162;8.548;2023-05-14T08:49:58;18.20;99.90
24638;DHT22;12773;50.162;8.548;2023-05-14T08:52:43;18.40;99.90
24638;DHT22;12773;50.162;8.548;2023-05-14T08:55:31;18.50;99.90
24638;DHT22;12773;50.162;8.548;2023-05-14T08:58:19;18.60;99.90
24638;DHT22;12773;50.162;8.548;2023-05-14T09:01:06;18.80;99.90
24638;DHT22;12773;50.162;8.548;2023-05-14T09:03:54;18.70;99.90
24638;DHT22;12773;50.162;8.548;2023-05-14T09:06:42;18.70;99.90
24638;DHT22;12773;50.162;8.548;2023-05-14T09:09:30;18.70;99.90
24638;DHT22;12773;50.162;8.548;2023-05-14T09:12:17;18.90;99.90
24638;DHT22;12773;50.162;8.548;2023-05-14T09:15:05;19.20;99.90
24638;DHT22;12773;50.162;8.548;2023-05-14T09:17:53;19.30;99.90
24638;DHT22;12773;50.162;8.548;2023-05-14T09:20:40;19.70;99.90
24638;DHT22;12773;50.162;8.548;2023-05-14T09:23:30;20.00;99.90
24638;DHT22;12773;50.162;8.548;2023-05-14T09:26:24;20.20;99.90
24638;DHT22;12773;50.162;8.548;2023-05-14T09:29:14;20.30;99.90
24638;DHT22;12773;50.162;8.548;2023-05-14T09:32:02;19.90;99.90
24638;DHT22;12773;50.162;8.548;2023-05-14T09:34:51;19.90;99.90
24638;DHT22;12773;50.162;8.548;2023-05-14T09:37:40;20.00;99.90
24638;DHT22;12773;50.162;8.548;2023-05-14T09:40:28;20.50;99.90
24638;DHT22;12773;50.162;8.548;2023-05-14T09:43:16;20.60;99.90
24638;DHT22;12773;50.162;8.548;2023-05-14T09:46:03;20.70;99.90
24638;DHT22;12773;50.162;8.548;2023-05-14T09:48:51;20.70;99.90
24638;DHT22;12773;50.162;8.548;2023-05-14T09:51:38;20.80;99.90
24638;DHT22;12773;50.162;8.548;2023-05-14T09:54:26;21.00;99.90
24638;DHT22;12773;50.162;8.548;2023-05-14T09:57:13;20.70;99.90
24638;DHT22;12773;50.162;8.548;2023-05-14T10:00:01;20.70;99.90
24638;DHT22;12773;50.162;8.548;2023-05-14T10:02:49;20.90;99.90
24638;DHT22;12773;50.162;8.548;2023-05-14T10:05:40;21.20;99.90
24638;DHT22;12773;50.162;8.548;2023-05-14T10:08:33;21.40;99.90
24638;DHT22;12773;50.162;8.548;2023-05-14T10:11:25;21.60;99.90
24638;DHT22;12773;50.162;8.548;2023-05-14T10:17:10;21.70;99.90
24638;DHT22;12773;50.162;8.548;2023-05-14T10:20:01;21.80;99.90
24638;DHT22;12773;50.162;8.548;2023-05-14T10:22:50;21.50;99.90
24638;DHT22;12773;50.162;8.548;2023-05-14T10:25:42;21.50;99.90
24638;DHT22;12773;50.162;8.548;2023-05-14T10:28:31;21.90;99.90
24638;DHT22;12773;50.162;8.548;2023-05-14T10:32:06;22.40;99.90
24638;DHT22;12773;50.162;8.548;2023-05-14T10:37:22;22.00;99.90
24638;DHT22;12773;50.162;8.548;2023-05-14T10:40:10;21.60;99.90
24638;DHT22;12773;50.162;8.548;2023-05-14T10:42:58;21.40;99.90
24638;DHT22;12773;50.162;8.548;2023-05-14T10:45:46;21.40;99.90
24638;DHT22;12773;50.162;8.548;2023-05-14T10:48:34;21.60;99.90
24638;DHT22;12773;50.162;8.548;2023-05-14T10:51:22;21.60;99.90
24638;DHT22;12773;50.162;8.548;2023-05-14T10:54:11;21.90;99.90
24638;DHT22;12773;50.162;8.548;2023-05-14T10:56:59;22.30;99.90
24638;DHT22;12773;50.162;8.548;2023-05-14T10:59:49;22.10;99.30
24638;DHT22;12773;50.162;8.548;2023-05-14T11:02:43;22.20;99.90
24638;DHT22;12773;50.162;8.548;2023-05-14T11:05:31;22.70;99.90
24638;DHT22;12773;50.162;8.548;2023-05-14T11:08:21;23.00;98.70
24638;DHT22;12773;50.162;8.548;2023-05-14T11:11:10;23.00;99.00
24638;DHT22;12773;50.162;8.548;2023-05-14T11:13:58;23.20;97.90
24638;DHT22;12773;50.162;8.548;2023-05-14T11:16:46;23.20;97.40
24638;DHT22;12773;50.162;8.548;2023-05-14T11:19:33;23.50;99.90
24638;DHT22;12773;50.162;8.548;2023-05-14T11:22:21;24.10;99.90
24638;DHT22;12773;50.162;8.548;2023-05-14T11:25:10;24.10;98.50
24638;DHT22;12773;50.162;8.548;2023-05-14T11:28:00;24.50;97.20
24638;DHT22;12773;50.162;8.548;2023-05-14T11:30:48;23.90;96.60
24638;DHT22;12773;50.162;8.548;2023-05-14T11:33:36;24.10;94.70
24638;DHT22;12773;50.162;8.548;2023-05-14T11:36:23;23.60;94.20
24638;DHT22;12773;50.162;8.548;2023-05-14T11:39:18;23.60;95.20
24638;DHT22;12773;50.162;8.548;2023-05-14T11:42:10;23.70;94.80
24638;DHT22;12773;50.162;8.548;2023-05-14T11:44:59;23.30;95.90
24638;DHT22;12773;50.162;8.548;2023-05-14T11:47:46;23.40;96.20
24638;DHT22;12773;50.162;8.548;2023-05-14T11:50:35;23.30;94.90
24638;DHT22;12773;50.162;8.548;2023-05-14T11:53:27;23.10;95.50
24638;DHT22;12773;50.162;8.548;2023-05-14T11:56:15;23.80;96.00
24638;DHT22;12773;50.162;8.548;2023-05-14T11:59:02;24.50;97.00
24638;DHT22;12773;50.162;8.548;2023-05-14T12:01:50;25.20;96.30
24638;DHT22;12773;50.162;8.548;2023-05-14T12:04:42;25.60;95.80
24638;DHT22;12773;50.162;8.548;2023-05-14T12:07:30;26.30;95.20
24638;DHT22;12773;50.162;8.548;2023-05-14T12:10:18;26.20;88.30
24638;DHT22;12773;50.162;8.548;2023-05-14T12:13:06;25.80;90.00
24638;DHT22;12773;50.162;8.548;2023-05-14T12:15:55;25.20;87.80
24638;DHT22;12773;50.162;8.548;2023-05-14T12:18:43;24.90;90.10
24638;DHT22;12773;50.162;8.548;2023-05-14T12:21:30;24.60;91.10
24638;DHT22;12773;50.162;8.548;2023-05-14T12:24:18;24.70;87.90
24638;DHT22;12773;50.162;8.548;2023-05-14T12:27:07;24.30;93.40
24638;DHT22;12773;50.162;8.548;2023-05-14T12:30:00;24.10;90.90
24638;DHT22;12773;50.162;8.548;2023-05-14T12:32:50;24.40;90.00
24638;DHT22;12773;50.162;8.548;2023-05-14T12:35:38;23.80;90.00
24638;DHT22;12773;50.162;8.548;2023-05-14T12:38:26;23.60;90.70
24638;DHT22;12773;50.162;8.548;2023-05-14T12:41:14;24.40;95.50
24638;DHT22;12773;50.162;8.548;2023-05-14T12:44:03;25.00;92.10
24638;DHT22;12773;50.162;8.548;2023-05-14T12:46:51;25.40;90.00
24638;DHT22;12773;50.162;8.548;2023-05-14T12:49:38;25.50;89.20
24638;DHT22;12773;50.162;8.548;2023-05-14T12:52:26;25.40;87.60
24638;DHT22;12773;50.162;8.548;2023-05-14T12:55:15;25.00;84.20
24638;DHT22;12773;50.162;8.548;2023-05-14T12:58:02;24.90;91.90
24638;DHT22;12773;50.162;8.548;2023-05-14T13:00:50;25.30;92.00
24638;DHT22;12773;50.162;8.548;2023-05-14T13:03:37;25.70;91.00
24638;DHT22;12773;50.162;8.548;2023-05-14T13:06:24;25.80;90.90
24638;DHT22;12773;50.162;8.548;2023-05-14T13:09:12;26.00;90.00
24638;DHT22;12773;50.162;8.548;2023-05-14T13:11:59;26.00;91.60
24638;DHT22;12773;50.162;8.548;2023-05-14T13:14:47;25.90;88.80
24638;DHT22;12773;50.162;8.548;2023-05-14T13:17:35;25.70;91.50
24638;DHT22;12773;50.162;8.548;2023-05-14T13:20:22;25.80;89.50
24638;DHT22;12773;50.162;8.548;2023-05-14T13:23:12;25.90;91.10
24638;DHT22;12773;50.162;8.548;2023-05-14T13:25:59;25.80;81.60
24638;DHT22;12773;50.162;8.548;2023-05-14T13:28:47;25.10;84.30
24638;DHT22;12773;50.162;8.548;2023-05-14T13:31:34;25.30;89.50
24638;DHT22;12773;50.162;8.548;2023-05-14T13:34:22;25.10;79.30
24638;DHT22;12773;50.162;8.548;2023-05-14T13:37:09;24.50;78.50
24638;DHT22;12773;50.162;8.548;2023-05-14T13:39:56;24.30;78.80
24638;DHT22;12773;50.162;8.548;2023-05-14T13:42:44;24.70;82.90
24638;DHT22;12773;50.162;8.548;2023-05-14T13:45:31;24.80;79.00
24638;DHT22;12773;50.162;8.548;2023-05-14T13:48:19;24.80;80.00
24638;DHT22;12773;50.162;8.548;2023-05-14T13:51:06;24.70;82.90
24638;DHT22;12773;50.162;8.548;2023-05-14T13:53:54;24.30;84.40
24638;DHT22;12773;50.162;8.548;2023-05-14T13:56:42;24.40;87.80
24638;DHT22;12773;50.162;8.548;2023-05-14T13:59:29;25.00;91.00
24638;DHT22;12773;50.162;8.548;2023-05-14T14:02:17;25.50;85.50
24638;DHT22;12773;50.162;8.548;2023-05-14T14:05:05;25.90;86.00
24638;DHT22;12773;50.162;8.548;2023-05-14T14:07:53;26.20;82.50
24638;DHT22;12773;50.162;8.548;2023-05-14T14:10:42;26.10;81.60
24638;DHT22;12773;50.162;8.548;2023-05-14T14:13:29;25.70;76.80
24638;DHT22;12773;50.162;8.548;2023-05-14T14:16:16;25.40;77.90
24638;DHT22;12773;50.162;8.548;2023-05-14T14:19:04;25.50;77.60
24638;DHT22;12773;50.162;8.548;2023-05-14T14:21:56;25.80;82.40
24638;DHT22;12773;50.162;8.548;2023-05-14T14:24:44;26.30;84.00
24638;DHT22;12773;50.162;8.548;2023-05-14T14:27:31;26.50;80.10
24638;DHT22;12773;50.162;8.548;2023-05-14T14:30:21;25.80;74.50
24638;DHT22;12773;50.162;8.548;2023-05-14T14:33:08;25.40;76.60
24638;DHT22;12773;50.162;8.548;2023-05-14T14:35:56;25.90;83.10
24638;DHT22;12773;50.162;8.548;2023-05-14T14:38:43;26.00;76.10
24638;DHT22;12773;50.162;8.548;2023-05-14T14:41:31;25.70;78.00
24638;DHT22;12773;50.162;8.548;2023-05-14T14:44:18;25.90;78.20
24638;DHT22;12773;50.162;8.548;2023-05-14T14:47:06;26.30;76.80
24638;DHT22;12773;50.162;8.548;2023-05-14T14:49:53;26.40;73.40
24638;DHT22;12773;50.162;8.548;2023-05-14T14:52:41;26.40;78.80
24638;DHT22;12773;50.162;8.548;2023-05-14T14:55:30;26.50;78.90
24638;DHT22;12773;50.162;8.548;2023-05-14T14:58:19;26.80;73.70
24638;DHT22;12773;50.162;8.548;2023-05-14T15:01:06;27.10;73.60
24638;DHT22;12773;50.162;8.548;2023-05-14T15:03:54;27.40;73.80
24638;DHT22;12773;50.162;8.548;2023-05-14T15:06:41;27.60;71.80
24638;DHT22;12773;50.162;8.548;2023-05-14T15:09:29;27.70;72.10
24638;DHT22;12773;50.162;8.548;2023-05-14T15:12:17;27.70;70.80
24638;DHT22;12773;50.162;8.548;2023-05-14T15:15:05;27.50;72.90
24638;DHT22;12773;50.162;8.548;2023-05-14T15:17:52;27.60;69.20
24638;DHT22;12773;50.162;8.548;2023-05-14T15:20:39;27.80;67.40
24638;DHT22;12773;50.162;8.548;2023-05-14T15:23:28;28.00;69.40
24638;DHT22;12773;50.162;8.548;2023-05-14T15:26:15;27.90;68.70
24638;DHT22;12773;50.162;8.548;2023-05-14T15:29:02;28.10;69.20
24638;DHT22;12773;50.162;8.548;2023-05-14T15:31:50;28.50;67.30
24638;DHT22;12773;50.162;8.548;2023-05-14T15:34:39;27.70;66.00
24638;DHT22;12773;50.162;8.548;2023-05-14T15:37:26;26.50;69.40
24638;DHT22;12773;50.162;8.548;2023-05-14T15:40:14;25.80;71.90
24638;DHT22;12773;50.162;8.548;2023-05-14T15:43:01;25.00;74.90
24638;DHT22;12773;50.162;8.548;2023-05-14T15:45:49;24.40;74.90
24638;DHT22;12773;50.162;8.548;2023-05-14T15:48:36;24.10;76.40
24638;DHT22;12773;50.162;8.548;2023-05-14T15:51:24;23.70;76.00
24638;DHT22;12773;50.162;8.548;2023-05-14T15:54:12;23.10;80.60
24638;DHT22;12773;50.162;8.548;2023-05-14T15:56:59;22.80;83.40
24638;DHT22;12773;50.162;8.548;2023-05-14T15:59:46;22.10;83.60
24638;DHT22;12773;50.162;8.548;2023-05-14T16:02:34;21.60;85.80
24638;DHT22;12773;50.162;8.548;2023-05-14T16:05:22;21.20;87.60
24638;DHT22;12773;50.162;8.548;2023-05-14T16:08:09;21.10;86.30
24638;DHT22;12773;50.162;8.548;2023-05-14T16:10:56;21.00;86.70
24638;DHT22;12773;50.162;8.548;2023-05-14T16:13:44;20.80;88.90
24638;DHT22;12773;50.162;8.548;2023-05-14T16:16:31;20.70;89.60
24638;DHT22;12773;50.162;8.548;2023-05-14T16:19:19;20.70;89.30
24638;DHT22;12773;50.162;8.548;2023-05-14T16:22:07;20.70;90.50
24638;DHT22;12773;50.162;8.548;2023-05-14T16:24:54;20.60;90.10
24638;DHT22;12773;50.162;8.548;2023-05-14T16:27:41;20.70;90.70
24638;DHT22;12773;50.162;8.548;2023-05-14T16:30:30;20.90;90.70
24638;DHT22;12773;50.162;8.548;2023-05-14T16:33:17;20.80;91.00
24638;DHT22;12773;50.162;8.548;2023-05-14T16:36:05;20.70;91.10
24638;DHT22;12773;50.162;8.548;2023-05-14T16:38:53;20.60;92.30
24638;DHT22;12773;50.162;8.548;2023-05-14T16:41:41;20.50;93.20
24638;DHT22;12773;50.162;8.548;2023-05-14T16:44:29;20.70;93.50
24638;DHT22;12773;50.162;8.548;2023-05-14T16:47:16;20.80;93.70
24638;DHT22;12773;50.162;8.548;2023-05-14T16:50:04;20.80;94.10
24638;DHT22;12773;50.162;8.548;2023-05-14T16:52:51;20.90;93.90
24638;DHT22;12773;50.162;8.548;2023-05-14T16:55:39;21.20;95.30
24638;DHT22;12773;50.162;8.548;2023-05-14T16:58:26;21.30;93.80
24638;DHT22;12773;50.162;8.548;2023-05-14T17:01:14;21.40;93.80
24638;DHT22;12773;50.162;8.548;2023-05-14T17:04:02;21.50;94.50
24638;DHT22;12773;50.162;8.548;2023-05-14T17:06:49;21.50;94.90
24638;DHT22;12773;50.162;8.548;2023-05-14T17:09:36;21.60;94.20
24638;DHT22;12773;50.162;8.548;2023-05-14T17:12:24;21.60;94.10
24638;DHT22;12773;50.162;8.548;2023-05-14T17:15:12;21.30;93.90
24638;DHT22;12773;50.162;8.548;2023-05-14T17:18:00;21.30;94.00
24638;DHT22;12773;50.162;8.548;2023-05-14T17:20:48;21.20;93.90
24638;DHT22;12773;50.162;8.548;2023-05-14T17:23:35;21.20;93.60
24638;DHT22;12773;50.162;8.548;2023-05-14T17:26:23;21.10;93.90
24638;DHT22;12773;50.162;8.548;2023-05-14T17:29:11;21.20;94.10
24638;DHT22;12773;50.162;8.548;2023-05-14T17:31:59;21.20;94.00
24638;DHT22;12773;50.162;8.548;2023-05-14T17:34:48;21.30;94.20
24638;DHT22;12773;50.162;8.548;2023-05-14T17:37:35;21.20;93.00
24638;DHT22;12773;50.162;8.548;2023-05-14T17:40:23;21.00;92.60
24638;DHT22;12773;50.162;8.548;2023-05-14T17:43:11;20.90;92.70
24638;DHT22;12773;50.162;8.548;2023-05-14T17:45:58;20.90;92.20
24638;DHT22;12773;50.162;8.548;2023-05-14T17:48:45;20.70;91.20